createdAt,value
2023-03-28T00:01:00.548Z,94.59
2023-03-28T00:03:29.075Z,94.29
2023-03-28T00:06:02.712Z,95.44
2023-03-28T00:08:30.704Z,95.40
2023-03-28T00:11:19.928Z,95.33
2023-03-28T00:14:03.517Z,96.02
2023-03-28T00:16:33.637Z,95.38
2023-03-28T00:19:03.740Z,94.80
2023-03-28T00:21:35.343Z,95.53
2023-03-28T00:24:06.700Z,96.59
2023-03-28T00:26:35.660Z,97.30
2023-03-28T00:29:06.691Z,96.77
2023-03-28T00:31:35.127Z,97.35
2023-03-28T00:34:02.207Z,97.17
2023-03-28T00:36:29.452Z,97.20
2023-03-28T00:38:57.834Z,97.24
2023-03-28T00:41:26.726Z,100.00
2023-03-28T00:43:55.830Z,100.00
2023-03-28T00:46:40.227Z,100.00
2023-03-28T00:49:15.908Z,100.00
2023-03-28T00:51:53.329Z,100.00
2023-03-28T00:54:21.010Z,100.00
2023-03-28T00:56:52.318Z,100.00
2023-03-28T00:59:23.706Z,100.00
2023-03-28T01:01:50.837Z,100.00
2023-03-28T01:04:20.467Z,100.00
2023-03-28T01:06:54.601Z,100.00
2023-03-28T01:09:24.150Z,99.46
2023-03-28T01:11:52.376Z,99.10
2023-03-28T01:14:23.249Z,99.03
2023-03-28T01:16:51.313Z,98.73
2023-03-28T01:19:44.490Z,98.97
2023-03-28T01:22:38.033Z,97.52
2023-03-28T01:25:44.496Z,96.39
2023-03-28T01:28:43.602Z,97.72
2023-03-28T01:31:42.997Z,98.33
2023-03-28T01:34:26.231Z,98.82
2023-03-28T01:37:05.572Z,99.08
2023-03-28T01:40:05.963Z,100.00
2023-03-28T01:42:53.200Z,100.00
2023-03-28T01:46:04.075Z,100.00
2023-03-28T01:48:47.218Z,100.00
2023-03-28T01:51:28.743Z,100.00
2023-03-28T01:54:34.238Z,99.53
2023-03-28T01:57:33.721Z,100.00
2023-03-28T02:00:21.472Z,100.00
2023-03-28T02:03:04.580Z,100.00
2023-03-28T02:05:34.927Z,100.00
2023-03-28T02:08:05.863Z,100.00
2023-03-28T02:10:33.274Z,100.00
2023-03-28T02:13:10.846Z,99.84
2023-03-28T02:15:41.334Z,98.78
2023-03-28T02:18:18.024Z,99.46
2023-03-28T02:20:45.592Z,100.00
2023-03-28T02:23:23.851Z,100.00
2023-03-28T02:25:51.610Z,100.00
2023-03-28T02:28:20.044Z,100.00
2023-03-28T02:30:46.868Z,100.00
2023-03-28T02:33:43.964Z,100.00
2023-03-28T02:36:52.461Z,100.00
2023-03-28T02:39:46.719Z,100.00
2023-03-28T02:42:55.953Z,100.00
2023-03-28T02:45:41.479Z,100.00
2023-03-28T02:48:37.880Z,100.00
2023-03-28T02:52:09.264Z,100.00
2023-03-28T02:54:53.403Z,100.00
2023-03-28T02:57:33.505Z,100.00
2023-03-28T03:00:11.520Z,100.00
2023-03-28T03:02:40.647Z,100.00
2023-03-28T03:05:09.639Z,100.00
2023-03-28T03:07:37.896Z,100.00
2023-03-28T03:10:11.301Z,99.74
2023-03-28T03:12:38.424Z,99.72
2023-03-28T03:15:06.144Z,100.00
2023-03-28T03:17:33.394Z,100.00
2023-03-28T03:20:02.524Z,100.00
2023-03-28T03:22:29.326Z,100.00
2023-03-28T03:24:56.357Z,100.00
2023-03-28T03:27:23.154Z,99.79
2023-03-28T03:29:50.298Z,100.00
2023-03-28T03:32:17.090Z,100.00
2023-03-28T03:34:43.923Z,100.00
2023-03-28T03:37:10.712Z,100.00
2023-03-28T03:39:37.531Z,100.00
2023-03-28T03:42:04.681Z,100.00
2023-03-28T03:44:31.637Z,100.00
2023-03-28T03:46:58.547Z,100.00
2023-03-28T03:49:25.382Z,100.00
2023-03-28T03:51:52.334Z,100.00
2023-03-28T03:54:19.345Z,100.00
2023-03-28T03:56:46.449Z,100.00
2023-03-28T03:59:13.335Z,100.00
2023-03-28T04:01:41.538Z,100.00
2023-03-28T04:04:08.428Z,100.00
2023-03-28T04:06:35.724Z,100.00
2023-03-28T04:09:02.524Z,100.00
2023-03-28T04:11:29.319Z,100.00
2023-03-28T04:13:56.148Z,100.00
2023-03-28T04:16:23.860Z,100.00
2023-03-28T04:18:50.977Z,100.00
2023-03-28T04:21:21.014Z,99.64
2023-03-28T04:23:48.411Z,100.00
2023-03-28T04:26:15.507Z,99.97
2023-03-28T04:28:43.613Z,100.00
2023-03-28T04:31:12.084Z,100.00
2023-03-28T04:33:40.103Z,100.00
2023-03-28T04:36:08.045Z,100.00
2023-03-28T04:38:41.710Z,100.00
2023-03-28T04:41:08.746Z,100.00
2023-03-28T04:43:35.553Z,100.00
2023-03-28T04:46:02.948Z,100.00
2023-03-28T04:48:30.078Z,100.00
2023-03-28T04:50:57.267Z,100.00
2023-03-28T04:53:24.389Z,100.00
2023-03-28T04:55:51.277Z,98.69
2023-03-28T04:58:23.019Z,98.62
2023-03-28T05:00:50.496Z,99.27
2023-03-28T05:03:21.222Z,99.98
2023-03-28T05:05:51.267Z,99.97
2023-03-28T05:08:22.584Z,100.00
2023-03-28T05:10:50.542Z,100.00
2023-03-28T05:13:17.648Z,100.00
2023-03-28T05:15:47.500Z,100.00
2023-03-28T05:18:15.480Z,100.00
2023-03-28T05:20:42.563Z,100.00
2023-03-28T05:23:09.639Z,100.00
2023-03-28T05:25:36.632Z,98.79
2023-03-28T05:28:04.438Z,99.34
2023-03-28T05:30:31.497Z,100.00
2023-03-28T05:32:59.466Z,100.00
2023-03-28T05:35:26.562Z,100.00
2023-03-28T05:37:53.394Z,100.00
2023-03-28T05:40:20.505Z,100.00
2023-03-28T05:42:47.331Z,100.00
2023-03-28T05:45:14.513Z,100.00
2023-03-28T05:47:41.531Z,100.00
2023-03-28T05:50:09.558Z,100.00
2023-03-28T05:52:36.365Z,100.00
2023-03-28T05:55:03.278Z,100.00
2023-03-28T05:57:30.121Z,100.00
2023-03-28T05:59:57.018Z,100.00
2023-03-28T06:02:24.416Z,100.00
2023-03-28T06:04:53.898Z,100.00
2023-03-28T06:07:31.511Z,100.00
2023-03-28T06:10:08.569Z,100.00
2023-03-28T06:12:35.794Z,100.00
2023-03-28T06:15:02.646Z,100.00
2023-03-28T06:17:29.535Z,100.00
2023-03-28T06:19:56.497Z,100.00
2023-03-28T06:22:23.379Z,100.00
2023-03-28T06:24:50.440Z,100.00
2023-03-28T06:27:17.291Z,100.00
2023-03-28T06:29:44.146Z,100.00
2023-03-28T06:32:12.582Z,100.00
2023-03-28T06:34:39.524Z,100.00
2023-03-28T06:37:06.552Z,100.00
2023-03-28T06:39:33.357Z,100.00
2023-03-28T06:42:03.210Z,100.00
2023-03-28T06:44:31.062Z,100.00
2023-03-28T06:46:58.429Z,100.00
2023-03-28T06:49:25.390Z,100.00
2023-03-28T06:51:53.204Z,100.00
2023-03-28T06:54:20.234Z,100.00
2023-03-28T06:56:47.075Z,100.00
2023-03-28T06:59:13.934Z,100.00
2023-03-28T07:01:41.136Z,100.00
2023-03-28T07:04:08.251Z,100.00
2023-03-28T07:06:35.257Z,100.00
2023-03-28T07:09:03.489Z,100.00
2023-03-28T07:11:32.369Z,100.00
2023-03-28T07:13:59.311Z,100.00
2023-03-28T07:16:26.183Z,100.00
2023-03-28T07:18:53.052Z,99.94
2023-03-28T07:21:20.061Z,99.90
2023-03-28T07:23:46.951Z,99.93
2023-03-28T07:26:15.474Z,99.48
2023-03-28T07:28:42.492Z,99.72
2023-03-28T07:31:09.617Z,99.85
2023-03-28T07:33:38.579Z,99.79
2023-03-28T07:36:21.135Z,100.00
2023-03-28T07:38:49.435Z,100.00
2023-03-28T07:41:16.490Z,99.65
2023-03-28T07:43:43.405Z,99.51
2023-03-28T07:46:14.369Z,100.00
2023-03-28T07:48:42.062Z,100.00
2023-03-28T07:51:10.653Z,100.00
2023-03-28T07:53:38.001Z,100.00
2023-03-28T07:56:10.756Z,100.00
2023-03-28T07:58:41.806Z,100.00
2023-03-28T08:01:13.721Z,100.00
2023-03-28T08:03:41.805Z,100.00
2023-03-28T08:06:20.650Z,100.00
2023-03-28T08:08:55.965Z,98.89
2023-03-28T08:11:22.949Z,97.41
2023-03-28T08:13:49.802Z,97.19
2023-03-28T08:16:16.674Z,95.77
2023-03-28T08:18:43.562Z,94.59
2023-03-28T08:21:10.500Z,94.10
2023-03-28T08:23:37.322Z,93.31
2023-03-28T08:26:06.134Z,93.59
2023-03-28T08:28:37.778Z,93.15
2023-03-28T08:31:14.276Z,92.83
2023-03-28T08:33:47.157Z,91.35
2023-03-28T08:36:14.896Z,89.88
2023-03-28T08:38:43.035Z,88.34
2023-03-28T08:41:46.095Z,87.49
2023-03-28T08:45:03.456Z,87.57
2023-03-28T08:47:59.415Z,87.44
2023-03-28T08:51:02.578Z,88.26
2023-03-28T08:53:37.289Z,89.79
2023-03-28T08:56:09.098Z,90.20
2023-03-28T08:58:58.572Z,87.84
2023-03-28T09:01:29.221Z,87.47
2023-03-28T09:03:56.602Z,87.29
2023-03-28T09:06:40.846Z,84.76
2023-03-28T09:09:16.232Z,82.56
2023-03-28T09:12:17.199Z,81.80
2023-03-28T09:15:19.091Z,81.12
2023-03-28T09:18:30.856Z,81.64
2023-03-28T09:21:18.122Z,81.22
2023-03-28T09:24:10.436Z,81.89
2023-03-28T09:26:47.613Z,82.41
2023-03-28T09:29:18.895Z,81.77
2023-03-28T09:31:54.492Z,81.42
2023-03-28T09:34:27.761Z,81.25
2023-03-28T09:37:15.777Z,81.40
2023-03-28T09:39:53.424Z,81.35
2023-03-28T09:42:29.312Z,80.75
2023-03-28T09:45:05.654Z,80.48
2023-03-28T09:47:33.200Z,79.81
2023-03-28T09:50:10.034Z,77.64
2023-03-28T09:52:40.180Z,77.05
2023-03-28T09:55:22.287Z,75.71
2023-03-28T09:58:10.170Z,73.76
2023-03-28T10:00:58.227Z,73.78
2023-03-28T10:03:33.257Z,73.27
2023-03-28T10:06:18.228Z,73.90
2023-03-28T10:08:45.314Z,73.79
2023-03-28T10:11:17.985Z,73.85
2023-03-28T10:13:51.178Z,68.63
2023-03-28T10:16:32.230Z,69.96
2023-03-28T10:18:59.134Z,67.97
2023-03-28T10:21:30.465Z,69.39
2023-03-28T10:24:02.976Z,67.57
2023-03-28T10:26:30.913Z,67.71
2023-03-28T10:29:04.282Z,66.61
2023-03-28T10:31:33.131Z,65.54
2023-03-28T10:34:02.741Z,63.72
2023-03-28T10:36:43.618Z,65.52
2023-03-28T10:39:24.821Z,65.95
2023-03-28T10:41:57.456Z,63.43
2023-03-28T10:44:30.331Z,64.50
2023-03-28T10:47:03.616Z,64.78
2023-03-28T10:49:47.096Z,64.43
2023-03-28T10:52:38.260Z,64.33
2023-03-28T10:55:14.218Z,55.38
2023-03-28T10:58:20.855Z,53.09
2023-03-28T11:01:22.914Z,50.44
2023-03-28T11:04:26.640Z,47.41
2023-03-28T11:07:20.767Z,47.70
2023-03-28T11:10:24.451Z,46.28
2023-03-28T11:13:15.889Z,48.54
2023-03-28T11:15:48.385Z,46.62
2023-03-28T11:18:48.921Z,44.38
2023-03-28T11:21:59.620Z,46.91
2023-03-28T11:24:58.688Z,47.12
2023-03-28T11:27:41.703Z,46.30
2023-03-28T11:30:21.501Z,49.69
2023-03-28T11:33:02.666Z,49.27
2023-03-28T11:35:47.158Z,49.22
2023-03-28T11:38:32.521Z,48.85
2023-03-28T11:41:23.971Z,50.10
2023-03-28T11:44:19.029Z,50.86
2023-03-28T11:46:52.447Z,49.65
2023-03-28T11:49:36.182Z,50.82
2023-03-28T11:52:28.266Z,51.88
2023-03-28T11:55:26.395Z,52.57
2023-03-28T11:58:11.458Z,51.76
2023-03-28T12:01:00.878Z,51.43
2023-03-28T12:03:55.661Z,49.73
2023-03-28T12:07:18.956Z,50.54
2023-03-28T12:10:14.969Z,50.11
2023-03-28T12:13:10.374Z,49.60
2023-03-28T12:16:05.032Z,49.89
2023-03-28T12:18:34.305Z,47.47
2023-03-28T12:21:03.413Z,49.37
2023-03-28T12:23:43.380Z,48.16
2023-03-28T12:27:00.929Z,46.69
2023-03-28T12:29:53.577Z,47.35
2023-03-28T12:32:35.280Z,46.57
2023-03-28T12:35:21.451Z,48.38
2023-03-28T12:38:24.071Z,46.61
2023-03-28T12:41:04.490Z,48.92
2023-03-28T12:43:49.130Z,47.70
2023-03-28T12:46:29.094Z,48.00
2023-03-28T12:49:18.734Z,45.49
2023-03-28T12:51:54.222Z,44.59
2023-03-28T12:54:28.728Z,46.78
2023-03-28T12:57:21.042Z,44.85
2023-03-28T13:00:28.366Z,48.22
2023-03-28T13:03:27.008Z,47.38
2023-03-28T13:06:03.356Z,46.97
2023-03-28T13:09:16.714Z,44.54
2023-03-28T13:12:15.353Z,48.45
2023-03-28T13:14:43.211Z,49.97
2023-03-28T13:17:26.583Z,50.00
2023-03-28T13:20:07.354Z,49.98
2023-03-28T13:22:42.488Z,49.78
2023-03-28T13:25:32.161Z,47.28
2023-03-28T13:28:12.082Z,47.82
2023-03-28T13:30:43.960Z,47.73
2023-03-28T13:33:27.810Z,47.58
2023-03-28T13:36:03.648Z,45.63
2023-03-28T13:38:30.572Z,44.67
2023-03-28T13:41:09.520Z,43.42
2023-03-28T13:43:45.696Z,44.67
2023-03-28T13:46:25.712Z,43.67
2023-03-28T13:49:13.479Z,45.82
2023-03-28T13:51:54.991Z,45.50
2023-03-28T13:54:23.763Z,46.06
2023-03-28T13:56:52.517Z,44.57
2023-03-28T13:59:26.248Z,45.13
2023-03-28T14:02:00.102Z,45.12
2023-03-28T14:04:33.318Z,44.63
2023-03-28T14:07:01.795Z,45.60
2023-03-28T14:09:28.532Z,44.41
2023-03-28T14:11:59.894Z,46.17
2023-03-28T14:14:42.976Z,46.58
2023-03-28T14:17:22.587Z,44.63
2023-03-28T14:20:05.995Z,45.38
2023-03-28T14:22:45.716Z,45.86
2023-03-28T14:25:21.586Z,46.71
2023-03-28T14:27:55.890Z,46.19
2023-03-28T14:30:36.979Z,46.26
2023-03-28T14:33:14.826Z,44.30
2023-03-28T14:35:51.045Z,43.79
2023-03-28T15:39:53.099Z,43.65
2023-03-28T15:42:20.097Z,42.81
2023-03-28T15:44:59.104Z,43.71
2023-03-28T15:47:30.218Z,44.17
2023-03-28T15:50:05.459Z,44.10
2023-03-28T15:52:34.186Z,43.21
2023-03-28T15:55:02.587Z,43.68
2023-03-28T15:57:30.754Z,43.98
2023-03-28T15:59:58.785Z,44.03
2023-03-28T16:02:25.739Z,41.50
2023-03-28T16:05:10.881Z,43.67
2023-03-28T16:07:50.613Z,40.80
2023-03-28T16:10:20.986Z,42.75
2023-03-28T16:12:51.053Z,42.77
2023-03-28T16:15:19.162Z,42.46
2023-03-28T16:17:47.264Z,40.98
2023-03-28T16:20:25.979Z,42.00
2023-03-28T16:22:52.776Z,42.79
2023-03-28T16:25:19.788Z,42.28
2023-03-28T16:27:46.625Z,43.02
2023-03-28T16:30:42.978Z,43.24
2023-03-28T16:33:10.207Z,43.11
2023-03-28T16:35:37.789Z,43.32
2023-03-28T16:38:04.724Z,43.48
2023-03-28T16:40:31.741Z,43.60
2023-03-28T16:42:58.617Z,43.17
2023-03-28T16:45:25.442Z,43.30
2023-03-28T16:47:52.516Z,43.34
2023-03-28T16:50:19.472Z,43.69
2023-03-28T16:52:46.315Z,44.02
2023-03-28T16:55:16.605Z,44.95
2023-03-28T16:57:43.928Z,44.34
2023-03-28T17:00:17.698Z,45.69
2023-03-28T17:02:48.784Z,45.63
2023-03-28T17:05:17.035Z,44.92
2023-03-28T17:07:43.845Z,45.07
2023-03-28T17:10:11.602Z,46.01
2023-03-28T17:12:38.463Z,45.54
2023-03-28T17:15:06.659Z,41.83
2023-03-28T17:17:33.616Z,41.69
2023-03-28T17:20:01.113Z,41.99
2023-03-28T17:22:27.970Z,42.18
2023-03-28T17:24:57.073Z,41.05
2023-03-28T17:27:23.966Z,42.97
2023-03-28T17:29:51.784Z,44.40
2023-03-28T17:32:18.865Z,45.87
2023-03-28T17:34:46.284Z,46.07
2023-03-28T17:37:13.245Z,46.52
2023-03-28T17:39:40.834Z,46.53
2023-03-28T17:42:09.032Z,47.47
2023-03-28T17:44:35.894Z,47.29
2023-03-28T17:47:03.011Z,47.10
2023-03-28T17:49:30.083Z,46.63
2023-03-28T17:51:57.240Z,47.63
2023-03-28T17:54:24.597Z,47.56
2023-03-28T17:56:52.471Z,47.15
2023-03-28T17:59:19.623Z,47.33
2023-03-28T18:01:46.535Z,47.33
2023-03-28T18:04:13.607Z,47.22
2023-03-28T18:06:41.086Z,48.03
2023-03-28T18:09:07.937Z,46.87
2023-03-28T18:11:35.779Z,47.02
2023-03-28T18:14:02.595Z,48.00
2023-03-28T18:16:29.613Z,47.15
2023-03-28T18:18:57.400Z,47.06
2023-03-28T18:21:24.806Z,47.78
2023-03-28T18:23:51.716Z,47.51
2023-03-28T18:26:18.580Z,47.99
2023-03-28T18:28:45.388Z,48.29
2023-03-28T18:31:15.976Z,48.56
2023-03-28T18:33:44.059Z,47.91
2023-03-28T18:36:12.799Z,48.72
2023-03-28T18:38:42.785Z,49.10
2023-03-28T18:41:12.393Z,48.87
2023-03-28T18:43:41.982Z,49.27
2023-03-28T18:48:40.260Z,48.66
2023-03-28T18:51:07.671Z,49.73
2023-03-28T18:53:40.606Z,50.12
2023-03-28T18:56:08.839Z,50.54
2023-03-28T18:58:39.065Z,50.90
2023-03-28T19:01:08.720Z,50.64
2023-03-28T19:03:40.480Z,50.92
2023-03-28T19:06:09.783Z,50.38
2023-03-28T19:08:36.879Z,50.06
2023-03-28T19:11:12.215Z,50.09
2023-03-28T19:13:39.405Z,50.53
2023-03-28T19:16:10.643Z,50.26
2023-03-28T19:18:40.066Z,50.82
2023-03-28T19:21:08.305Z,51.53
2023-03-28T19:23:36.878Z,51.16
2023-03-28T19:26:06.742Z,50.81
2023-03-28T19:28:33.965Z,51.20
2023-03-28T19:31:04.426Z,51.82
2023-03-28T19:33:31.397Z,51.49
2023-03-28T19:35:58.650Z,51.83
2023-03-28T19:38:26.360Z,51.44
2023-03-28T19:41:10.056Z,51.67
2023-03-28T19:43:38.093Z,52.03
2023-03-28T19:46:08.272Z,52.71
2023-03-28T19:48:35.827Z,52.60
2023-03-28T19:51:03.448Z,53.08
2023-03-28T19:53:30.241Z,53.20
2023-03-28T19:55:59.445Z,53.07
2023-03-28T19:58:27.532Z,53.47
2023-03-28T20:00:56.769Z,53.16
2023-03-28T20:03:23.635Z,53.02
2023-03-28T20:05:50.615Z,53.28
2023-03-28T20:08:18.966Z,53.58
2023-03-28T20:10:51.333Z,54.12
2023-03-28T20:13:18.946Z,54.24
2023-03-28T20:15:46.914Z,54.46
2023-03-28T20:18:20.889Z,55.05
2023-03-28T20:21:00.393Z,54.71
2023-03-28T20:23:29.700Z,55.65
2023-03-28T20:25:58.693Z,54.20
2023-03-28T20:28:25.766Z,54.99
2023-03-28T20:30:53.983Z,55.13
2023-03-28T20:33:21.249Z,55.50
2023-03-28T20:35:52.890Z,55.58
2023-03-28T20:38:19.716Z,55.92
2023-03-28T20:40:46.610Z,54.74
2023-03-28T20:43:19.923Z,54.93
2023-03-28T20:45:54.687Z,54.95
2023-03-28T20:48:34.920Z,54.97
2023-03-28T20:51:15.085Z,54.69
2023-03-28T20:53:44.224Z,55.66
2023-03-28T20:56:13.465Z,56.24
2023-03-28T20:58:40.686Z,56.31
2023-03-28T21:01:12.042Z,56.61
2023-03-28T21:03:50.235Z,57.25
2023-03-28T21:06:20.404Z,54.79
2023-03-28T21:08:49.985Z,55.24
2023-03-28T21:11:22.212Z,56.42
2023-03-28T21:13:49.542Z,57.02
2023-03-28T21:16:17.204Z,56.68
2023-03-28T21:18:44.993Z,55.77
2023-03-28T21:21:14.105Z,56.16
2023-03-28T21:23:41.453Z,56.28
2023-03-28T21:26:13.775Z,56.44
2023-03-28T21:28:41.068Z,56.47
2023-03-28T21:31:12.243Z,56.70
2023-03-28T21:33:40.315Z,55.15
2023-03-28T21:36:10.167Z,54.73
2023-03-28T21:38:38.295Z,55.87
2023-03-28T21:41:06.142Z,55.90
2023-03-28T21:43:33.388Z,55.68
2023-03-28T21:46:00.458Z,56.51
2023-03-28T21:48:27.941Z,56.60
2023-03-28T21:51:00.548Z,57.08
2023-03-28T21:53:31.924Z,56.78
2023-03-28T21:55:59.521Z,55.90
2023-03-28T21:58:29.895Z,55.87
2023-03-28T22:00:57.245Z,56.04
2023-03-28T22:03:24.688Z,55.98
2023-03-28T22:05:53.426Z,56.37
2023-03-28T22:08:22.137Z,56.48
2023-03-28T22:10:58.264Z,56.61
2023-03-28T22:13:25.167Z,57.00
2023-03-28T22:15:52.845Z,56.20
2023-03-28T22:18:20.522Z,55.49
2023-03-28T22:20:53.122Z,55.79
2023-03-28T22:23:22.699Z,56.22
2023-03-28T22:25:50.431Z,54.05
2023-03-28T22:28:18.752Z,56.29
2023-03-28T22:30:45.977Z,56.97
2023-03-28T22:33:13.419Z,56.85
2023-03-28T22:35:40.605Z,57.03
2023-03-28T22:38:07.725Z,57.63
2023-03-28T22:40:34.948Z,57.52
2023-03-28T22:43:03.066Z,58.45
2023-03-28T22:45:30.032Z,57.77
2023-03-28T22:48:00.170Z,56.88
2023-03-28T22:50:28.127Z,56.76
2023-03-28T22:52:55.431Z,56.00
2023-03-28T22:55:24.153Z,57.61
2023-03-28T22:57:52.479Z,59.26
2023-03-28T23:00:23.527Z,63.28
2023-03-28T23:02:52.061Z,65.09
2023-03-28T23:05:19.861Z,68.94
2023-03-28T23:07:47.312Z,73.75
2023-03-28T23:10:17.646Z,76.83
2023-03-28T23:12:45.493Z,79.37
2023-03-28T23:15:13.182Z,79.86
2023-03-28T23:17:40.287Z,80.10
2023-03-28T23:20:12.477Z,81.62
2023-03-28T23:22:41.486Z,83.10
2023-03-28T23:25:10.729Z,84.34
2023-03-28T23:27:37.758Z,84.60
2023-03-28T23:30:05.778Z,84.99
2023-03-28T23:32:32.618Z,86.86
2023-03-28T23:34:59.633Z,87.50
2023-03-28T23:37:27.390Z,87.94
2023-03-28T23:39:55.490Z,88.98
2023-03-28T23:42:24.095Z,88.97
2023-03-28T23:44:51.754Z,89.30
2023-03-28T23:47:20.354Z,93.47
2023-03-28T23:49:47.578Z,95.20
2023-03-28T23:52:16.235Z,95.74
2023-03-28T23:54:44.092Z,96.45
2023-03-28T23:57:11.038Z,98.34
2023-03-28T23:59:37.879Z,99.32
